AirNav   Everest Fuels
 
 1537 users online  

8MO7 Bean Lake Airport
Rushville, Missouri, USA

GOING TO RUSHVILLE?


FAA INFORMATION EFFECTIVE 03 NOVEMBER 2022

Location

FAA Identifier: 8MO7
Lat/Long: 39-29-29.9850N 095-00-23.8730W
39-29.499750N 095-00.397883W
39.4916625,-95.0066314
(estimated)
Elevation: 780 ft. / 238 m (estimated)
Variation: 05E (1985)
From city: 7 miles SE of RUSHVILLE, MO
Time zone: UTC -6 (UTC -5 during Daylight Saving Time)
Zip code: 64484

Airport Operations

Airport use: Private use. Permission required prior to landing
Activation date: 07/1965
Control tower: no
ARTCC: KANSAS CITY CENTER
FSS: COLUMBIA FLIGHT SERVICE STATION
Attendance: UNATNDD
Wind indicator: no
Segmented circle: no

Airport Communications

WX AWOS-3PT at K59 (9 nm NW): 123.675 (913-367-1449)
WX ASOS at STJ (17 nm N): 125.05 (816-233-0666)
WX ASOS at MCI (18 nm SE): PHONE 816-329-2808

Nearby radio navigation aids

VOR radial/distance  VOR name  Freq  Var
MCIr310/17.6KANSAS CITY VORTAC113.2505E
STJr180/28.4ST JOSEPH VORTAC115.5008E
TOPr045/33.0TOPEKA VORTAC117.8005E

 
NDB name  Hdg/Dist  Freq  Var  ID
TARIO199/12.026004EST ... -
AMAZON187/24.023304EAZN .- --.. -.

Airport Services

Airframe service: NONE
Powerplant service: NONE

Runway Information

Runway N/S

Dimensions: 2600 x 100 ft. / 792 x 30 m
Surface: turf
RUNWAY N  RUNWAY S
Traffic pattern: leftleft
Obstructions: 50 ft. plines, 1200 ft. from runway50 ft. plines, 1200 ft. from runway

Airport Ownership and Management from official FAA records

Ownership: Privately-owned
Owner: CLAUDE W. MC GUEEN, JR
BOX 151
BRANSON, MO 65616
Manager: FRANK T. MC GUEEN, III
RR 1 BOX 1A
RUSHVILLE, MO 64484
Phone 816-688-7957

Additional Remarks

FOR CD CTC KANSAS CITY APCH AT 816-329-2710.

Instrument Procedures

There are no published instrument procedures at 8MO7.

Some nearby airports with instrument procedures:

KFLV - Sherman Army Airfield (9 nm SE)
K59 - Amelia Earhart Airport (9 nm NW)
KSTJ - Rosecrans Memorial Airport (17 nm N)
KMCI - Kansas City International Airport (18 nm SE)
KMKC - Charles B Wheeler Downtown Airport (29 nm SE)
 
Loc | Ops | Rwys | IFR | FBO | Links
Com | Nav | Svcs | Stats | Notes
Area around 8MO7 (Bean Lake Airport)
 
Road maps at: MapQuest Bing Google
 
Aerial photo
No photo
 
Sectional chart

 
Airport distance calculator
Flying to Bean Lake Airport? Find the distance to fly.

From to 8MO7

Sunrise and sunset
Times for 29-Nov-2022
 Local
(UTC-6)
 Zulu
(UTC)
Morning civil twilight06:5112:51
Sunrise07:2013:20
Sunset16:5622:56
Evening civil twilight17:2623:26

Current date and time
Zulu (UTC)  29-Nov-2022 19:28:53
Local (UTC-6)  29-Nov-2022 13:28:53
 
METAR
KSTJ 
17nm N 
291908Z 32022G34KT 8SM OVC016 01/M02 A2963 RMK AO2 PK WND 33034/1902 T00061022
KMCI 
17nm SE 
291853Z 31021G28KT 3SM -DZ OVC010 03/M01 A2960 RMK AO2 PK WND 30035/1815 SFC VIS 6 RAB41E51DZB51 PRESRR SLP026 P0000 T00281006
KMKC 
29nm SE 
291920Z 30012G25KT 10SM OVC013 03/ A2963 RMK AO2 PK WND 32028/1855 T0028 $
KLWC 
30nm S 
291852Z AUTO 33018G25KT 10SM OVC011 03/M01 A2965 RMK AO1 PK WND 33030/1759 SLP045 T00281011
KGPH 
34nm E 
291855Z AUTO 30019G26KT 10SM 06/00 A2957 RMK AO2
TAF
KSTJ 
17nm N 
291728Z 2918/3018 29016G26KT P6SM BKN018 FM300100 32013G23KT P6SM SCT070 FM301200 30010KT P6SM SKC
KMCI 
17nm SE 
291728Z 2918/3018 29015G25KT P6SM BKN018 FM300100 32014G24KT P6SM SCT070 FM301200 30010KT P6SM SKC
NOTAMs
Click for the latest NOTAMs
NOTAMs are issued by the DoD/FAA and will open in a separate window not controlled by AirNav.

 

 
 

Would you like to see your business listed on this page?

 If your business provides an interesting product or service to pilots, flight crews, aircraft, or users of the Bean Lake Airport, you should consider listing it here.  To start the listing process, click on the button below
 
Add a business
 

Other Pages about Bean Lake Airport

Update a link
 
Copyright © AirNav, LLC. All rights reserved. Privacy Policy  Contact